Weather observations for the past three days for
Longville, Longville Municipal Airport
Imperial (Metric)
Date Time (cdt) Wind (mph) Vis. (mi.) Weather Sky Cond. Temperature (ºF) Relative Humidity Wind Chill (°F) Heat Index (°F) Pressure Precipitation (in)
Air Dwpt 6 hour altimeter (in) sea level (mb) 1 hr 3 hr 6 hr
Max. Min.
09 12:53 NW 9 G 21 10.00 Fair CLR 50 24.8 37% 47 29.82 0.0
09 12:33 NW 13 G 21 10.00 Fair CLR 48.2 24.8 40% 43 29.82 0.0
09 12:13 NW 13 G 25 10.00 Fair CLR 48.2 23 37% 43 29.81 0.0
09 11:53 NW 13 G 25 10.00 Fair CLR 48.2 24.8 40% 43 29.81 0.0
09 11:33 NW 13 G 23 10.00 Fair CLR 48.2 24.8 40% 43 29.81 0.0
09 11:13 W 17 G 26 10.00 Partly Cloudy SCT050 48.2 26.6 43% 42 29.8 0.0
09 10:53 NW 8 G 18 10.00 Partly Cloudy SCT048 46.4 24.8 43% 43 29.8 0.0
09 10:33 NW 10 G 18 10.00 Mostly Cloudy BKN048 46.4 24.8 43% 42 29.79 0.0
09 10:13 N 12 G 21 10.00 Mostly Cloudy BKN046 46.4 24.8 43% 42 29.78 0.0
09 09:53 N 10 G 17 10.00 Partly Cloudy SCT046 44.6 26.6 49% 40 29.77 0.0
09 09:33 NW 10 G 16 10.00 Fair CLR 44.6 26.6 49% 40 29.77 0.0
09 09:13 NW 7 G 20 10.00 Fair CLR 42.8 24.8 49% 39 29.76 0.0
09 08:53 NW 12 G 18 10.00 Fair CLR 42.8 24.8 49% 37 29.76 0.0
09 08:33 NW 10 G 24 10.00 Fair CLR 42.8 24.8 49% 38 29.74 0.0
09 08:13 NW 12 G 20 10.00 Fair CLR 44.6 26.6 49% 39 29.73 0.0
09 07:53 NW 7 G 21 10.00 Fair CLR 44.6 24.8 46% 41 29.72 0.0
09 07:33 NW 8 G 17 10.00 Fair CLR 42.8 24.8 49% 39 29.71 0.0
09 07:13 NW 6 10.00 Fair CLR 42.8 24.8 49% 40 29.7 0.0
09 06:53 NW 5 10.00 Partly Cloudy SCT095 42.8 24.8 49% 41 29.69 0.0
09 06:33 NW 3 10.00 Mostly Cloudy BKN095 42.8 26.6 53% 29.69 0.0
09 06:13 N 6 10.00 Overcast OVC095 42.8 26.6 53% 40 29.68 0.0
09 05:53 N 8 10.00 Overcast SCT070 OVC095 42.8 30.2 61% 39 29.67 0.0
09 05:33 NW 8 10.00 Mostly Cloudy BKN095 42.8 35.6 76% 39 29.66 0.0
09 05:13 NW 7 10.00 Mostly Cloudy BKN095 42.8 35.6 76% 39 29.65 0.0
09 04:53 W 8 10.00 Mostly Cloudy BKN095 42.8 37.4 81% 39 29.64 0.0
09 04:33 W 6 10.00 Overcast SCT070 OVC095 42.8 37.4 81% 40 29.63 0.0
09 04:13 W 5 10.00 Overcast BKN070 OVC085 42.8 37.4 81% 41 29.63 0.0
09 03:53 W 6 10.00 Overcast OVC060 42.8 39.2 87% 40 29.63 0.0
09 03:33 W 3 10.00 Overcast OVC050 42.8 39.2 87% 29.62 0.0
09 03:13 Calm 10.00 Light Drizzle OVC045 42.8 39.2 87% 29.61 0.0
09 02:53 Calm 10.00 Light Drizzle OVC041 42.8 39.2 87% 29.61 0.0
09 02:33 W 3 10.00 Light Rain BKN041 OVC060 42.8 39.2 87% 29.61 0.0
09 02:13 Calm 10.00 Light Rain SCT031 BKN038 OVC043 42.8 39.2 87% 29.62 0.0
09 01:53 W 5 10.00 Light Rain BKN030 OVC039 42.8 37.4 81% 41 29.63 0.0
09 01:33 NW 3 10.00 Light Rain SCT034 OVC041 44.6 37.4 76% 29.62 0.0
09 01:13 Calm 10.00 Light Rain BKN034 OVC045 44.6 37.4 76% 29.63 0.0
09 00:53 W 5 10.00 Light Rain BKN034 BKN045 OVC055 46.4 37.4 71% 45 29.63 0.0
09 00:33 W 9 10.00 Rain SCT032 BKN046 OVC055 46.4 37.4 71% 42 29.63 0.0
09 00:13 NW 13 G 17 10.00 Drizzle BKN039 OVC049 50 33.8 54% 46 29.63 0.0
08 23:53 NW 8 10.00 Light Drizzle SCT041 BKN049 OVC055 51.8 28.4 41% 29.63 0.0
08 23:33 NW 7 10.00 NULL NULL 48.2 28.4 46% 46 29.63 0.0
08 23:13 Calm 10.00 Mostly Cloudy SCT065 BKN075 BKN090 42.8 32 66% 29.59 0.0
08 22:53 Calm 10.00 Fair CLR 42.8 28.4 57% 29.59 0.0
08 22:33 Calm 10.00 Fair CLR 42.8 28.4 57% 29.59 0.0
08 22:13 Calm 10.00 Fair CLR 42.8 28.4 57% 29.59 0.0
08 21:53 Calm 10.00 Fair CLR 42.8 28.4 57% 29.59 0.0
08 21:33 Calm 10.00 Fair CLR 42.8 28.4 57% 29.59 0.0
08 21:13 Calm 10.00 Fair CLR 46.4 30.2 53% 29.59 0.0
08 20:53 Calm 10.00 Fair CLR 51.8 28.4 41% 29.59 0.0
08 20:33 NW 5 10.00 Fair CLR 53.6 26.6 35% 29.59 0.0
08 20:13 W 5 10.00 Fair CLR 53.6 26.6 35% 29.59 0.0
08 19:53 NW 7 10.00 Fair CLR 55.4 24.8 31% 29.6 0.0
08 19:33 NW 9 G 16 10.00 Fair CLR 57.2 23 27% 29.6 0.0
08 19:13 NW 13 G 21 10.00 Fair CLR 57.2 23 27% 29.59 0.0
08 18:53 NW 17 G 23 10.00 Fair CLR 59 24.8 27% 29.59 0.0
08 18:33 NW 14 G 22 10.00 Fair CLR 60.8 24.8 25% 29.59 0.0
08 18:13 NW 12 G 22 10.00 Fair CLR 60.8 23 23% 29.58 0.0
08 17:53 NW 12 G 25 10.00 Fair CLR 62.6 23 22% 29.58 0.0
08 17:33 NW 16 G 25 10.00 Fair CLR 62.6 23 22% 29.58 0.0
08 17:13 NW 14 G 26 10.00 Partly Cloudy SCT095 62.6 26.6 25% 29.57 0.0
08 16:53 NW 15 G 25 10.00 Mostly Cloudy BKN095 62.6 26.6 25% 29.57 0.0
08 16:33 NW 8 G 16 10.00 Mostly Cloudy BKN095 62.6 24.8 24% 29.56 0.0
08 16:13 W 12 G 26 10.00 Partly Cloudy SCT095 62.6 21.2 20% 29.56 0.0
08 15:53 W 17 G 23 10.00 Partly Cloudy SCT095 64.4 21.2 19% 29.56 0.0
08 15:33 W 15 G 25 10.00 Mostly Cloudy BKN095 62.6 21.2 20% 29.57 0.0
08 15:13 SW 12 G 18 10.00 Mostly Cloudy BKN095 62.6 19.4 19% 29.58 0.0
08 14:53 SW 12 G 21 10.00 Partly Cloudy SCT095 62.6 19.4 19% 29.58 0.0
08 14:33 W 16 G 21 10.00 Partly Cloudy SCT095 62.6 21.2 20% 29.59 0.0
08 14:13 SW 13 G 20 10.00 Partly Cloudy SCT095 62.6 19.4 19% 29.6 0.0
08 13:53 SW 6 G 22 10.00 Partly Cloudy SCT095 62.6 19.4 19% 29.6 0.0
08 13:33 W 9 10.00 Fair CLR 62.6 21.2 20% 29.61 0.0
08 13:13 W 14 G 23 10.00 Partly Cloudy SCT095 64.4 21.2 19% 29.62 0.0
08 12:53 SW 8 10.00 Fair CLR 62.6 21.2 20% 29.63 0.0
08 12:33 SW 9 G 16 10.00 Fair CLR 62.6 21.2 20% 29.64 0.0
08 12:13 S 8 10.00 Fair CLR 60.8 19.4 20% 29.65 0.0
08 11:53 S 7 10.00 Fair CLR 60.8 19.4 20% 29.66 0.0
08 11:33 SW 6 10.00 Partly Cloudy SCT110 57.2 19.4 23% 29.66 0.0
08 11:13 S 7 10.00 Partly Cloudy SCT110 55.4 21.2 26% 29.67 0.0
08 10:53 S 6 10.00 Fair CLR 55.4 21.2 26% 29.68 0.0
08 10:33 S 6 10.00 Fair CLR 55.4 21.2 26% 29.69 0.0
08 10:13 S 3 10.00 Partly Cloudy SCT100 53.6 21.2 28% 29.7 0.0
08 09:53 Calm 10.00 Fair CLR 51.8 23 32% 29.7 0.0
08 09:33 Calm 10.00 Fair CLR 50 24.8 37% 29.71 0.0
08 09:13 SW 5 10.00 Fair CLR 48.2 26.6 43% 47 29.72 0.0
08 08:53 SW 5 10.00 Fair CLR 46.4 28.4 50% 45 29.72 0.0
08 08:33 SW 6 10.00 Fair CLR 46.4 26.6 46% 44 29.72 0.0
08 08:13 SW 3 10.00 Fair CLR 44.6 28.4 53% 29.73 0.0
08 07:53 SW 5 10.00 Partly Cloudy SCT120 41 30.2 66% 38 29.72 0.0
08 07:33 Calm 10.00 NULL NULL 35.6 33.8 93% 29.72 0.0
08 07:13 Calm 10.00 NULL NULL 33.8 30.2 87% 29.72 0.0
08 06:53 Calm 10.00 NULL NULL 32 30.2 93% 29.72 0.0
08 06:33 Calm 10.00 Partly Cloudy SCT120 28.4 26.6 93% 29.73 0.0
08 06:13 Calm 10.00 Partly Cloudy SCT120 28.4 26.6 93% 29.73 0.0
08 05:53 Calm 10.00 NULL NULL 28.4 26.6 93% 29.73 0.0
08 05:33 Calm 10.00 Partly Cloudy SCT120 26.6 26.6 100% 29.74 0.0
08 05:13 Calm 10.00 Fair CLR 26.6 26.6 100% 29.74 0.0
08 04:53 Calm 10.00 Fair CLR 26.6 26.6 100% 29.75 0.0
08 04:33 Calm 10.00 Fair CLR 26.6 24.8 93% 29.75 0.0
08 04:13 Calm 10.00 Fair CLR 26.6 24.8 93% 29.75 0.0
08 03:53 Calm 10.00 Fair CLR 26.6 24.8 93% 29.75 0.0
08 03:33 Calm 10.00 Fair CLR 26.6 24.8 93% 29.74 0.0
08 03:13 Calm 10.00 Fair CLR 26.6 24.8 93% 29.75 0.0
08 02:53 Calm 10.00 Fair CLR 26.6 24.8 93% 29.75 0.0
08 02:33 Calm 10.00 Fair CLR 26.6 24.8 93% 29.76 0.0
08 02:13 Calm 10.00 Fair CLR 26.6 24.8 93% 29.76 0.0
08 01:53 Calm 10.00 Fair CLR 26.6 23 86% 29.77 0.0
08 01:33 Calm 10.00 Fair CLR 28.4 23 80% 29.77 0.0
08 01:13 Calm 10.00 Fair CLR 28.4 23 80% 29.77 0.0
08 00:53 Calm 10.00 Fair CLR 28.4 23 80% 29.77 0.0
08 00:33 Calm 10.00 Fair CLR 28.4 23 80% 29.78 0.0
08 00:13 Calm 10.00 Fair CLR 28.4 23 80% 29.78 0.0
07 23:53 Calm 10.00 Fair CLR 30.2 24.8 80% 29.78 0.0
07 23:33 Calm 10.00 Fair CLR 30.2 24.8 80% 29.78 0.0
07 23:13 Calm 10.00 Fair CLR 30.2 24.8 80% 29.79 0.0
07 22:53 Calm 10.00 Fair CLR 32 23 69% 29.79 0.0
07 22:33 Calm 10.00 Fair CLR 33.8 23 65% 29.79 0.0
07 22:13 Calm 10.00 Fair CLR 35.6 24.8 65% 29.79 0.0
07 21:53 Calm 10.00 Fair CLR 35.6 24.8 65% 29.79 0.0
07 21:33 Calm 10.00 Fair CLR 37.4 26.6 65% 29.78 0.0
07 21:13 Calm 10.00 Fair CLR 39.2 24.8 56% 29.78 0.0
07 20:53 Calm 10.00 Fair CLR 42.8 23 46% 29.77 0.0
07 20:33 Calm 10.00 Fair CLR 46.4 21.2 37% 29.76 0.0
07 20:13 Calm 10.00 Fair CLR 48.2 19.4 32% 29.76 0.0
07 19:53 Calm 10.00 Fair CLR 51.8 17.6 26% 29.76 0.0
07 19:33 NW 7 10.00 Fair CLR 51.8 17.6 26% 29.76 0.0
07 19:13 NW 8 10.00 Fair CLR 51.8 17.6 26% 29.76 0.0
07 18:53 NW 7 10.00 Fair CLR 53.6 17.6 24% 29.76 0.0
07 18:33 NW 8 10.00 Fair CLR 53.6 17.6 24% 29.76 0.0
07 18:13 NW 8 10.00 Fair CLR 53.6 17.6 24% 29.76 0.0
07 17:53 NW 12 G 16 10.00 Fair CLR 53.6 17.6 24% 29.76 0.0
07 17:33 NW 8 10.00 Fair CLR 53.6 17.6 24% 29.76 0.0
07 17:13 NW 9 G 13 10.00 Partly Cloudy SCT090 53.6 19.4 26% 29.77 0.0
07 16:53 NW 8 G 17 10.00 Partly Cloudy SCT090 53.6 19.4 26% 29.77 0.0
07 16:33 NW 9 10.00 Partly Cloudy SCT080 51.8 17.6 26% 29.77 0.0
07 16:13 W 8 G 18 10.00 Mostly Cloudy BKN080 51.8 19.4 28% 29.77 0.0
07 15:53 NW 7 G 16 10.00 Partly Cloudy SCT080 51.8 17.6 26% 29.78 0.0
07 15:33 NW 8 10.00 Partly Cloudy SCT080 53.6 19.4 26% 29.78 0.0
07 15:13 W 5 10.00 Partly Cloudy SCT080 SCT095 51.8 19.4 28% 29.78 0.0
07 14:53 NW 10 10.00 Partly Cloudy SCT080 51.8 17.6 26% 29.79 0.0
07 14:33 W 12 G 16 10.00 Fair CLR 51.8 19.4 28% 29.79 0.0
07 14:13 NW 8 G 18 10.00 Partly Cloudy SCT080 51.8 17.6 26% 29.79 0.0
07 13:53 NW 8 G 17 10.00 Partly Cloudy SCT080 SCT090 50 17.6 28% 47 29.79 0.0
07 13:33 W 13 G 18 10.00 Partly Cloudy SCT070 50 19.4 30% 46 29.8 0.0
07 13:13 NW 8 G 17 10.00 Partly Cloudy SCT080 48.2 19.4 32% 45 29.8 0.0
07 12:53 W 12 G 18 10.00 Partly Cloudy SCT065 48.2 17.6 29% 44 29.8 0.0
07 12:33 NW 9 10.00 Partly Cloudy SCT065 48.2 19.4 32% 45 29.81 0.0
07 12:13 NW 9 10.00 Mostly Cloudy BKN065 50 19.4 30% 47 29.82 0.0
07 11:53 W 14 G 23 10.00 Mostly Cloudy SCT065 BKN075 48.2 19.4 32% 43 29.82 0.0
07 11:33 W 12 G 16 10.00 Mostly Cloudy BKN060 BKN075 48.2 19.4 32% 44 29.82 0.0
07 11:13 W 13 G 17 10.00 Mostly Cloudy SCT060 BKN085 48.2 21.2 34% 43 29.83 0.0
07 10:53 W 9 G 17 10.00 Mostly Cloudy BKN085 48.2 23 37% 45 29.83 0.0
07 10:33 SW 13 10.00 Partly Cloudy SCT085 46.4 23 40% 41 29.84 0.0
07 10:13 W 7 10.00 Mostly Cloudy SCT070 BKN085 44.6 23 43% 41 29.84 0.0
07 09:53 S 6 10.00 Mostly Cloudy BKN070 BKN085 44.6 23 43% 42 29.85 0.0
07 09:33 SW 6 10.00 Mostly Cloudy BKN070 BKN080 42.8 24.8 49% 40 29.85 0.0
07 09:13 SW 3 10.00 Mostly Cloudy BKN060 39.2 24.8 56% 29.85 0.0
07 08:53 SW 5 10.00 Mostly Cloudy BKN070 BKN080 39.2 24.8 56% 36 29.86 0.0
07 08:33 SW 6 10.00 Overcast BKN070 OVC080 37.4 24.8 60% 33 29.86 0.0
07 08:13 SW 6 10.00 Overcast OVC070 37.4 24.8 60% 33 29.87 0.0
07 07:53 SW 3 10.00 Overcast OVC070 35.6 24.8 65% 29.87 0.0
07 07:33 SW 5 10.00 Mostly Cloudy BKN070 35.6 24.8 65% 32 29.87 0.0
07 07:13 W 5 10.00 Partly Cloudy SCT070 35.6 24.8 65% 32 29.86 0.0
07 06:53 SW 3 10.00 Fair CLR 33.8 24.8 70% 29.86 0.0
07 06:33 SW 5 10.00 Fair CLR 32 24.8 75% 28 29.85 0.0
07 06:13 SW 6 10.00 Partly Cloudy SCT080 33.8 24.8 70% 29 29.85 0.0
07 05:53 Calm 10.00 Mostly Cloudy BKN080 33.8 24.8 70% 29.86 0.0
07 05:33 SW 5 10.00 Overcast OVC080 33.8 24.8 70% 30 29.86 0.0
07 05:13 SW 5 10.00 Overcast OVC080 33.8 24.8 70% 30 29.86 0.0
07 04:53 SW 5 10.00 Overcast OVC080 33.8 24.8 70% 30 29.86 0.0
07 04:33 SW 3 10.00 Overcast OVC080 30.2 24.8 80% 29.86 0.0
07 04:13 Calm 10.00 Mostly Cloudy BKN080 26.6 24.8 93% 29.87 0.0
07 03:53 Calm 10.00 Fair CLR 26.6 24.8 93% 29.87 0.0
07 03:33 Calm 10.00 Fair CLR 26.6 24.8 93% 29.87 0.0
07 03:13 Calm 10.00 Fair CLR 28.4 24.8 86% 29.87 0.0
07 02:53 Calm 10.00 Fair CLR 28.4 24.8 86% 29.87 0.0
07 02:33 W 5 10.00 Fair CLR 33.8 24.8 70% 30 29.87 0.0
07 02:13 W 3 10.00 Fair CLR 33.8 24.8 70% 29.87 0.0
07 01:53 SW 3 10.00 Fair CLR 35.6 24.8 65% 29.88 0.0
07 01:33 W 3 10.00 Fair CLR 35.6 24.8 65% 29.89 0.0
07 01:13 W 3 10.00 Fair CLR 35.6 24.8 65% 29.89 0.0
07 00:53 SW 5 10.00 Partly Cloudy SCT048 35.6 24.8 65% 32 29.89 0.0
07 00:33 SW 3 10.00 Mostly Cloudy BKN048 37.4 24.8 60% 29.9 0.0
07 00:13 SW 5 10.00 Overcast OVC048 37.4 24.8 60% 34 29.9 0.0
06 23:53 SW 3 10.00 Mostly Cloudy BKN048 BKN050 37.4 24.8 60% 29.9 0.0
06 23:33 SW 3 10.00 Overcast BKN050 BKN055 OVC080 37.4 24.8 60% 29.91 0.0
06 23:13 SW 3 10.00 Overcast SCT050 OVC080 37.4 24.8 60% 29.91 0.0
06 22:53 SW 7 10.00 Overcast SCT060 OVC080 37.4 24.8 60% 33 29.92 0.0
06 22:33 W 5 10.00 Overcast SCT060 OVC070 37.4 24.8 60% 34 29.92 0.0
06 22:13 W 5 10.00 Overcast OVC070 39.2 23 52% 36 29.92 0.0
06 21:53 W 6 10.00 Overcast OVC070 39.2 23 52% 36 29.92 0.0
06 21:33 W 6 10.00 Overcast OVC070 39.2 23 52% 36 29.92 0.0
06 21:13 W 5 10.00 Overcast OVC070 39.2 23 52% 36 29.92 0.0
06 20:53 W 3 10.00 Overcast OVC060 39.2 21.2 48% 29.92 0.0
06 20:33 SW 3 10.00 Overcast OVC060 39.2 21.2 48% 29.92 0.0
06 20:13 W 5 10.00 Overcast OVC070 39.2 21.2 48% 36 29.92 0.0
06 19:53 W 5 10.00 Overcast OVC070 39.2 21.2 48% 36 29.92 0.0
06 19:33 W 3 10.00 Overcast OVC055 39.2 21.2 48% 29.93 0.0
06 19:13 W 7 10.00 Overcast OVC065 39.2 23 52% 35 29.93 0.0
06 18:53 W 6 10.00 Overcast SCT050 OVC065 39.2 21.2 48% 36 29.93 0.0
06 18:33 W 5 10.00 Overcast OVC050 39.2 23 52% 36 29.94 0.0
06 18:13 W 7 10.00 Overcast OVC050 39.2 21.2 48% 35 29.94 0.0
06 17:53 W 10 10.00 Overcast BKN050 OVC060 39.2 23 52% 33 29.94 0.0
06 17:33 W 7 10.00 Overcast OVC050 39.2 23 52% 35 29.94 0.0
06 17:13 W 6 G 9 10.00 Overcast SCT046 OVC050 39.2 23 52% 36 29.94 0.0
06 16:53 W 8 10.00 Overcast BKN046 OVC050 39.2 23 52% 34 29.94 0.0
06 16:33 NW 6 10.00 Overcast BKN046 OVC050 39.2 23 52% 36 29.94 0.0
06 16:13 W 8 10.00 Overcast BKN046 OVC055 39.2 24.8 56% 34 29.95 0.0
06 15:53 W 7 10.00 Overcast OVC044 39.2 24.8 56% 35 29.95 0.0
06 15:33 NW 8 10.00 Overcast OVC044 39.2 24.8 56% 34 29.95 0.0
06 15:13 NW 8 10.00 Overcast BKN046 OVC050 39.2 23 52% 34 29.95 0.0
06 14:53 W 9 10.00 Overcast OVC047 41 24.8 53% 36 29.95 0.0
06 14:33 W 10 G 16 10.00 Overcast OVC047 41 24.8 53% 35 29.96 0.0
06 14:13 NW 9 10.00 Overcast OVC045 39.2 24.8 56% 34 29.96 0.0
06 13:53 NW 7 G 10 10.00 Overcast SCT038 OVC046 41 24.8 53% 37 29.95 0.0
06 13:33 W 10 G 17 10.00 Overcast OVC046 39.2 24.8 56% 33 29.96 0.0
06 13:13 NW 10 G 18 10.00 Overcast OVC044 41 23 49% 35 29.96 0.0
Date Time (cdt) Wind (mph) Vis. (mi.) Weather Sky Cond. Air Dwpt Max. Min. Relative Humidity Wind Chill (°F) Heat Index (°F) altimeter (in) sea level (mb) 1 hr 3 hr 6 hr
6 hour
Temperature (ºF) Pressure Precipitation (in)